Time;durP1;ratioP1;P1;durP2;ratioP2;P2;SDS_P1;SDS_P2;PMS_P1;PMS_P2;Temp;Humidity;BMP_temperature;BMP_pressure;BME280_temperature;BME280_humidity;BME280_pressure;Samples;Min_cycle;Max_cycle;Signal;HPM_P1;HPM_P2
2023/11/03 00:00:19;;;;;;;1.65;1.58;;;;;;;;;;5054624;28;20041;-62
2023/11/03 00:02:47;;;;;;;1.65;1.55;;;;;;;;;;5054100;28;20096;-66
2023/11/03 00:05:18;;;;;;;1.83;1.73;;;;;;;;;;5047555;28;20045;-63
2023/11/03 00:07:46;;;;;;;1.50;1.50;;;;;;;;;;5043863;28;20151;-61
2023/11/03 00:10:16;;;;;;;1.75;1.67;;;;;;;;;;5047102;28;20139;-62
2023/11/03 00:12:45;;;;;;;1.77;1.73;;;;;;;;;;5048693;28;20387;-62
2023/11/03 00:15:13;;;;;;;1.60;1.60;;;;;;;;;;5051895;28;20051;-62
2023/11/03 00:17:42;;;;;;;1.70;1.60;;;;;;;;;;5051771;28;20045;-62
2023/11/03 00:20:14;;;;;;;1.60;1.60;;;;;;;;;;5048423;28;20045;-62
2023/11/03 00:22:44;;;;;;;1.88;1.77;;;;;;;;;;5048102;28;20068;-65
2023/11/03 00:25:14;;;;;;;1.70;1.70;;;;;;;;;;5052547;28;20056;-63
2023/11/03 00:27:44;;;;;;;1.80;1.70;;;;;;;;;;5044812;28;20037;-66
2023/11/03 00:30:14;;;;;;;1.60;1.60;;;;;;;;;;5048218;28;20470;-61
2023/11/03 00:32:43;;;;;;;1.63;1.63;;;;;;;;;;5051565;28;20053;-62
2023/11/03 00:35:11;;;;;;;1.45;1.45;;;;;;;;;;5047754;28;20478;-63
2023/11/03 00:37:40;;;;;;;1.65;1.55;;;;;;;;;;5049937;28;20111;-62
2023/11/03 00:40:13;;;;;;;1.80;1.70;;;;;;;;;;5051107;28;20045;-63
2023/11/03 00:42:42;;;;;;;1.50;1.50;;;;;;;;;;5048943;28;20051;-64
2023/11/03 00:45:11;;;;;;;1.50;1.50;;;;;;;;;;5049119;28;20422;-60
2023/11/03 00:47:39;;;;;;;1.70;1.70;;;;;;;;;;5044709;28;20049;-60
2023/11/03 00:50:09;;;;;;;1.70;1.60;;;;;;;;;;5050868;28;20406;-59
2023/11/03 00:52:37;;;;;;;1.60;1.60;;;;;;;;;;5049428;28;20051;-60
2023/11/03 00:55:06;;;;;;;1.50;1.50;;;;;;;;;;5047884;28;20094;-66
2023/11/03 00:57:37;;;;;;;1.60;1.60;;;;;;;;;;5043129;28;20422;-63
2023/11/03 01:00:12;;;;;;;2.00;1.80;;;;;;;;;;5046655;28;20049;-59
2023/11/03 01:02:41;;;;;;;1.60;1.60;;;;;;;;;;5050204;28;20063;-59
2023/11/03 01:05:11;;;;;;;1.85;1.75;;;;;;;;;;5048065;28;20044;-61
2023/11/03 01:07:40;;;;;;;1.63;1.63;;;;;;;;;;5045164;28;20041;-61
2023/11/03 01:10:09;;;;;;;1.80;1.70;;;;;;;;;;5042297;28;20063;-59
2023/11/03 01:12:39;;;;;;;1.60;1.60;;;;;;;;;;5051625;28;20083;-60
2023/11/03 01:15:08;;;;;;;1.45;1.45;;;;;;;;;;5040735;28;20482;-61
2023/11/03 01:17:37;;;;;;;1.60;1.60;;;;;;;;;;5048779;28;20072;-61
2023/11/03 01:20:12;;;;;;;1.50;1.50;;;;;;;;;;5045994;28;20049;-60
2023/11/03 01:22:41;;;;;;;1.60;1.60;;;;;;;;;;5048434;28;20057;-62
2023/11/03 01:25:12;;;;;;;1.80;1.70;;;;;;;;;;5046916;28;20048;-59
2023/11/03 01:27:44;;;;;;;1.80;1.65;;;;;;;;;;5050830;28;20080;-61
2023/11/03 01:30:14;;;;;;;1.50;1.50;;;;;;;;;;5047790;28;20399;-59
2023/11/03 01:32:42;;;;;;;1.50;1.50;;;;;;;;;;5049378;28;20094;-60
2023/11/03 01:35:11;;;;;;;1.98;1.88;;;;;;;;;;5048111;28;20041;-62
2023/11/03 01:37:42;;;;;;;1.50;1.50;;;;;;;;;;5049486;28;20502;-60
2023/11/03 01:40:14;;;;;;;1.60;1.60;;;;;;;;;;5044145;28;20049;-63
2023/11/03 01:42:44;;;;;;;1.70;1.60;;;;;;;;;;5050161;28;20068;-59
2023/11/03 01:45:12;;;;;;;1.67;1.60;;;;;;;;;;5039402;28;20049;-60
2023/11/03 01:47:41;;;;;;;1.70;1.60;;;;;;;;;;5049208;28;20060;-60
2023/11/03 01:50:10;;;;;;;2.13;1.90;;;;;;;;;;5047066;28;20049;-63
2023/11/03 01:52:39;;;;;;;1.95;1.88;;;;;;;;;;5043908;28;20052;-60
2023/11/03 01:55:08;;;;;;;1.58;1.58;;;;;;;;;;5040968;28;20049;-62
2023/11/03 01:57:38;;;;;;;1.90;1.80;;;;;;;;;;5045200;28;20045;-61
2023/11/03 02:00:13;;;;;;;1.80;1.80;;;;;;;;;;5050320;28;20048;-59
2023/11/03 02:02:42;;;;;;;1.90;1.83;;;;;;;;;;5049006;28;20045;-61
2023/11/03 02:05:11;;;;;;;1.85;1.75;;;;;;;;;;5045309;28;20520;-60
2023/11/03 02:07:39;;;;;;;1.77;1.70;;;;;;;;;;5043882;28;20091;-61
2023/11/03 02:10:08;;;;;;;1.63;1.63;;;;;;;;;;5046827;28;20409;-66
2023/11/03 02:12:37;;;;;;;1.60;1.60;;;;;;;;;;5049411;28;20481;-59
2023/11/03 02:15:06;;;;;;;1.98;1.90;;;;;;;;;;5048650;28;20045;-63
2023/11/03 02:17:36;;;;;;;1.58;1.58;;;;;;;;;;5049347;28;20049;-60
2023/11/03 02:20:06;;;;;;;1.58;1.58;;;;;;;;;;5048275;28;20048;-60
2023/11/03 02:22:35;;;;;;;1.50;1.50;;;;;;;;;;5049595;28;20052;-60
2023/11/03 02:25:05;;;;;;;1.48;1.48;;;;;;;;;;5048474;28;20095;-59
2023/11/03 02:27:33;;;;;;;1.50;1.50;;;;;;;;;;5047007;28;20044;-59
2023/11/03 02:30:03;;;;;;;1.52;1.52;;;;;;;;;;5048821;28;20057;-60
2023/11/03 02:32:31;;;;;;;1.50;1.50;;;;;;;;;;5048593;28;20400;-68
2023/11/03 02:35:00;;;;;;;1.83;1.73;;;;;;;;;;5047919;28;20068;-59
2023/11/03 02:37:28;;;;;;;1.45;1.45;;;;;;;;;;5048279;28;20060;-59
2023/11/03 02:39:56;;;;;;;1.45;1.45;;;;;;;;;;5047577;28;20202;-59
2023/11/03 02:42:26;;;;;;;3.55;1.60;;;;;;;;;;5044698;28;20516;-59
2023/11/03 02:44:55;;;;;;;1.60;1.60;;;;;;;;;;5044311;28;20462;-64
2023/11/03 02:47:23;;;;;;;1.60;1.60;;;;;;;;;;5045061;28;20122;-60
2023/11/03 02:49:51;;;;;;;1.77;1.70;;;;;;;;;;5047336;28;20126;-64
2023/11/03 02:52:20;;;;;;;1.80;1.70;;;;;;;;;;5047427;28;20045;-60
2023/11/03 02:54:48;;;;;;;2.00;1.90;;;;;;;;;;5048546;28;20045;-63
2023/11/03 02:57:16;;;;;;;1.55;1.55;;;;;;;;;;5040547;28;20041;-60
2023/11/03 02:59:46;;;;;;;1.60;1.60;;;;;;;;;;5049130;28;20049;-60
2023/11/03 03:02:15;;;;;;;1.65;1.65;;;;;;;;;;5045927;28;20057;-60
2023/11/03 03:04:43;;;;;;;1.70;1.70;;;;;;;;;;5048275;28;20049;-59
2023/11/03 03:07:13;;;;;;;2.08;1.98;;;;;;;;;;5040909;28;20528;-61
2023/11/03 03:09:41;;;;;;;1.80;1.70;;;;;;;;;;5048607;28;20545;-59
2023/11/03 03:12:09;;;;;;;3.50;1.80;;;;;;;;;;5046295;28;20051;-61
2023/11/03 03:14:37;;;;;;;1.88;1.77;;;;;;;;;;5048399;28;20077;-59
2023/11/03 03:17:07;;;;;;;1.90;1.73;;;;;;;;;;5046392;28;20073;-59
2023/11/03 03:19:35;;;;;;;1.60;1.60;;;;;;;;;;5034907;28;20099;-61
2023/11/03 03:22:04;;;;;;;2.72;1.67;;;;;;;;;;5045506;28;20099;-62
2023/11/03 03:24:32;;;;;;;1.50;1.50;;;;;;;;;;5048620;28;20409;-60
2023/11/03 03:27:01;;;;;;;1.73;1.67;;;;;;;;;;5044320;28;20137;-63
2023/11/03 03:29:29;;;;;;;1.77;1.77;;;;;;;;;;5047304;28;20049;-59
2023/11/03 03:31:57;;;;;;;1.90;1.80;;;;;;;;;;5047576;28;20053;-62
2023/11/03 03:34:27;;;;;;;1.60;1.60;;;;;;;;;;5042102;28;20491;-62
2023/11/03 03:36:56;;;;;;;1.60;1.60;;;;;;;;;;5044155;28;20100;-60
2023/11/03 03:39:24;;;;;;;1.70;1.60;;;;;;;;;;5050496;28;20490;-60
2023/11/03 03:41:52;;;;;;;1.77;1.70;;;;;;;;;;5049559;28;20069;-59
2023/11/03 03:44:21;;;;;;;1.98;1.88;;;;;;;;;;5052233;28;20076;-62
2023/11/03 03:46:49;;;;;;;2.03;1.92;;;;;;;;;;5052471;28;20071;-59
2023/11/03 03:49:18;;;;;;;1.77;1.67;;;;;;;;;;5050043;28;20498;-61
2023/11/03 03:51:47;;;;;;;1.70;1.70;;;;;;;;;;5050452;28;20493;-60
2023/11/03 03:54:16;;;;;;;2.15;1.80;;;;;;;;;;5049420;28;20045;-59
2023/11/03 03:56:44;;;;;;;2.60;1.90;;;;;;;;;;5050172;28;20171;-60
2023/11/03 03:59:13;;;;;;;2.00;1.90;;;;;;;;;;5049308;28;20490;-59
2023/11/03 04:01:43;;;;;;;1.77;1.67;;;;;;;;;;5048710;28;20468;-61
2023/11/03 04:04:11;;;;;;;1.80;1.70;;;;;;;;;;5050681;28;20081;-59
2023/11/03 04:06:39;;;;;;;1.77;1.77;;;;;;;;;;5048953;28;20510;-61
2023/11/03 04:09:10;;;;;;;2.28;2.17;;;;;;;;;;5042392;28;20088;-59
2023/11/03 04:11:38;;;;;;;2.50;1.80;;;;;;;;;;5044966;28;20084;-62
2023/11/03 04:14:07;;;;;;;1.60;1.50;;;;;;;;;;5051246;28;20131;-61
2023/11/03 04:16:36;;;;;;;2.50;1.88;;;;;;;;;;5051998;28;20041;-59
2023/11/03 04:19:04;;;;;;;2.08;1.98;;;;;;;;;;5051848;28;20049;-64
2023/11/03 04:21:33;;;;;;;1.98;1.67;;;;;;;;;;5050981;28;20076;-61
2023/11/03 04:24:01;;;;;;;1.85;1.73;;;;;;;;;;5049652;28;20052;-61
2023/11/03 04:26:31;;;;;;;1.85;1.75;;;;;;;;;;5039885;28;20049;-60
2023/11/03 04:28:59;;;;;;;2.08;1.98;;;;;;;;;;5050350;28;20052;-60
2023/11/03 04:31:28;;;;;;;2.10;1.90;;;;;;;;;;5050540;28;20128;-59
2023/11/03 04:33:56;;;;;;;1.90;1.80;;;;;;;;;;5051810;28;20088;-59
2023/11/03 04:36:25;;;;;;;1.70;1.60;;;;;;;;;;5048017;28;20049;-60
2023/11/03 04:38:53;;;;;;;2.00;1.90;;;;;;;;;;5048736;28;20049;-59
2023/11/03 04:41:23;;;;;;;2.22;2.13;;;;;;;;;;5048391;28;20075;-58
2023/11/03 04:43:53;;;;;;;2.45;1.90;;;;;;;;;;5049150;28;20083;-60
2023/11/03 04:46:22;;;;;;;1.98;1.88;;;;;;;;;;5048486;28;20122;-60
2023/11/03 04:48:52;;;;;;;2.15;1.95;;;;;;;;;;5036701;28;20107;-59
2023/11/03 04:51:21;;;;;;;2.35;2.15;;;;;;;;;;5049217;28;20123;-61
2023/11/03 04:53:49;;;;;;;2.00;1.90;;;;;;;;;;5049459;28;20060;-60
2023/11/03 04:56:18;;;;;;;1.70;1.65;;;;;;;;;;5040367;28;20491;-59
2023/11/03 04:58:47;;;;;;;2.22;2.00;;;;;;;;;;5047255;28;20049;-62
2023/11/03 05:01:18;;;;;;;1.65;1.55;;;;;;;;;;5049020;28;20200;-60
2023/11/03 05:03:46;;;;;;;1.80;1.70;;;;;;;;;;5047097;28;20449;-60
2023/11/03 05:06:15;;;;;;;1.80;1.70;;;;;;;;;;5050328;28;20045;-62
2023/11/03 05:08:43;;;;;;;2.05;1.88;;;;;;;;;;5049502;28;20111;-59
2023/11/03 05:11:11;;;;;;;2.13;1.80;;;;;;;;;;5043938;28;20049;-59
2023/11/03 05:13:43;;;;;;;1.60;1.60;;;;;;;;;;5050532;28;20476;-60
2023/11/03 05:16:13;;;;;;;1.85;1.75;;;;;;;;;;5047968;28;20053;-61
2023/11/03 05:18:42;;;;;;;1.80;1.70;;;;;;;;;;5049187;28;20055;-62
2023/11/03 05:21:14;;;;;;;1.90;1.80;;;;;;;;;;5049578;28;20045;-60
2023/11/03 05:23:43;;;;;;;1.90;1.80;;;;;;;;;;5041118;28;20056;-59
2023/11/03 05:26:13;;;;;;;2.00;1.80;;;;;;;;;;5039884;28;20041;-61
2023/11/03 05:28:43;;;;;;;2.25;2.05;;;;;;;;;;5049404;28;20046;-63
2023/11/03 05:31:12;;;;;;;1.88;1.77;;;;;;;;;;5044495;28;20052;-60
2023/11/03 05:33:40;;;;;;;1.90;1.80;;;;;;;;;;5046908;28;20072;-61
2023/11/03 05:36:11;;;;;;;1.90;1.80;;;;;;;;;;5050619;28;20536;-61
2023/11/03 05:38:39;;;;;;;1.77;1.67;;;;;;;;;;5047620;28;20076;-60
2023/11/03 05:41:08;;;;;;;2.00;1.90;;;;;;;;;;5049325;28;20052;-63
2023/11/03 05:43:37;;;;;;;2.00;1.75;;;;;;;;;;5049410;28;20192;-64
2023/11/03 05:46:05;;;;;;;2.10;2.00;;;;;;;;;;5049201;28;20453;-60
2023/11/03 05:48:34;;;;;;;2.20;2.00;;;;;;;;;;5049627;28;20127;-64
2023/11/03 05:51:02;;;;;;;2.00;1.90;;;;;;;;;;5049286;28;20045;-61
2023/11/03 05:53:32;;;;;;;1.98;1.88;;;;;;;;;;5040706;28;20088;-63
2023/11/03 05:56:01;;;;;;;1.80;1.70;;;;;;;;;;5045707;28;20326;-62
2023/11/03 05:58:30;;;;;;;1.83;1.73;;;;;;;;;;5041533;28;20080;-60
2023/11/03 06:00:58;;;;;;;1.70;1.60;;;;;;;;;;5049199;28;20098;-60
2023/11/03 06:03:26;;;;;;;2.33;2.15;;;;;;;;;;5048705;28;20033;-60
2023/11/03 06:05:55;;;;;;;1.75;1.65;;;;;;;;;;5042919;28;20053;-63
2023/11/03 06:08:23;;;;;;;2.25;1.90;;;;;;;;;;5040686;28;20044;-60
2023/11/03 06:10:53;;;;;;;1.90;1.80;;;;;;;;;;5050666;28;20103;-60
2023/11/03 06:13:22;;;;;;;3.05;1.90;;;;;;;;;;5048641;28;20092;-64
2023/11/03 06:15:50;;;;;;;2.28;2.08;;;;;;;;;;5049207;28;20569;-61
2023/11/03 06:18:18;;;;;;;2.35;2.08;;;;;;;;;;5048648;28;20061;-62
2023/11/03 06:20:47;;;;;;;2.50;2.35;;;;;;;;;;5047620;28;20048;-62
2023/11/03 06:23:15;;;;;;;1.83;1.73;;;;;;;;;;5047902;28;20052;-62
2023/11/03 06:25:44;;;;;;;2.45;2.13;;;;;;;;;;5049479;28;20482;-60
2023/11/03 06:28:14;;;;;;;2.20;2.08;;;;;;;;;;5044916;28;20383;-67
2023/11/03 06:30:42;;;;;;;1.98;1.88;;;;;;;;;;5038324;28;20042;-63
2023/11/03 06:33:11;;;;;;;1.90;1.80;;;;;;;;;;5045990;28;20073;-63
2023/11/03 06:35:39;;;;;;;2.17;2.08;;;;;;;;;;5048281;28;20476;-60
2023/11/03 06:38:08;;;;;;;2.00;1.90;;;;;;;;;;5043703;28;20076;-61
2023/11/03 06:40:36;;;;;;;2.17;2.08;;;;;;;;;;5049545;28;20057;-62
2023/11/03 06:43:05;;;;;;;2.20;1.95;;;;;;;;;;5037800;28;20060;-64
2023/11/03 06:45:36;;;;;;;2.15;1.90;;;;;;;;;;5039933;28;20045;-60
2023/11/03 06:48:05;;;;;;;1.73;1.70;;;;;;;;;;5049452;28;20049;-62
2023/11/03 06:50:34;;;;;;;1.75;1.65;;;;;;;;;;5047236;28;20083;-59
2023/11/03 06:53:02;;;;;;;1.92;1.83;;;;;;;;;;5040684;28;20048;-62
2023/11/03 06:55:31;;;;;;;1.92;1.83;;;;;;;;;;5043314;28;20049;-62
2023/11/03 06:58:00;;;;;;;1.98;1.88;;;;;;;;;;5044602;28;20057;-62
2023/11/03 07:00:29;;;;;;;2.50;2.20;;;;;;;;;;5045567;28;20495;-60
2023/11/03 07:03:00;;;;;;;2.05;1.90;;;;;;;;;;5044437;28;20057;-60
2023/11/03 07:05:30;;;;;;;2.97;2.00;;;;;;;;;;5048049;28;20045;-64
2023/11/03 07:08:00;;;;;;;2.08;1.98;;;;;;;;;;5044911;28;20049;-63
2023/11/03 07:10:28;;;;;;;2.88;2.00;;;;;;;;;;5048053;28;20049;-61
2023/11/03 07:12:57;;;;;;;2.25;1.80;;;;;;;;;;5048012;28;20490;-62
2023/11/03 07:15:26;;;;;;;2.40;2.20;;;;;;;;;;5050238;28;20098;-65
2023/11/03 07:17:54;;;;;;;2.30;2.20;;;;;;;;;;5047936;28;20057;-60
2023/11/03 07:20:24;;;;;;;2.05;1.95;;;;;;;;;;5049574;28;20053;-63
2023/11/03 07:22:53;;;;;;;2.38;2.17;;;;;;;;;;5053101;28;20048;-61
2023/11/03 07:25:24;;;;;;;2.10;2.00;;;;;;;;;;5053014;28;20045;-61
2023/11/03 07:27:53;;;;;;;3.63;2.17;;;;;;;;;;5050942;28;20056;-67
2023/11/03 07:30:22;;;;;;;2.30;2.10;;;;;;;;;;5043332;28;20502;-61
2023/11/03 07:32:50;;;;;;;2.13;2.03;;;;;;;;;;5049715;28;20045;-63
2023/11/03 07:35:19;;;;;;;2.08;1.88;;;;;;;;;;5051020;28;20048;-61
2023/11/03 07:37:49;;;;;;;1.85;1.75;;;;;;;;;;5050455;28;20045;-66
2023/11/03 07:40:18;;;;;;;2.00;1.90;;;;;;;;;;5051300;28;20092;-61
2023/11/03 07:42:47;;;;;;;2.22;2.13;;;;;;;;;;5052415;28;20041;-63
2023/11/03 07:45:16;;;;;;;2.30;2.20;;;;;;;;;;5050650;28;20045;-61
2023/11/03 07:47:44;;;;;;;2.30;2.10;;;;;;;;;;5050678;28;20048;-60
2023/11/03 07:50:14;;;;;;;2.05;1.95;;;;;;;;;;5042064;28;20128;-62
2023/11/03 07:52:42;;;;;;;2.53;2.42;;;;;;;;;;5049951;28;20551;-60
2023/11/03 07:55:15;;;;;;;3.20;2.20;;;;;;;;;;5051137;28;20107;-65
2023/11/03 07:57:43;;;;;;;2.63;2.20;;;;;;;;;;5046904;28;20416;-62
2023/11/03 08:00:12;;;;;;;2.83;2.58;;;;;;;;;;5051185;28;20052;-64
2023/11/03 08:02:41;;;;;;;2.58;2.47;;;;;;;;;;5051847;28;20052;-63
2023/11/03 08:05:10;;;;;;;4.03;3.63;;;;;;;;;;5052212;28;20045;-62
2023/11/03 08:07:39;;;;;;;4.43;4.03;;;;;;;;;;5046847;28;20065;-61
2023/11/03 08:10:11;;;;;;;5.15;4.45;;;;;;;;;;5044954;28;20565;-61
2023/11/03 08:12:42;;;;;;;10.10;5.70;;;;;;;;;;5050920;28;20048;-62
2023/11/03 08:15:10;;;;;;;5.18;4.47;;;;;;;;;;5050293;28;20505;-60
2023/11/03 08:17:43;;;;;;;9.38;4.43;;;;;;;;;;5047681;28;20476;-62
2023/11/03 08:20:15;;;;;;;3.10;2.55;;;;;;;;;;5051202;28;20049;-63
2023/11/03 08:22:44;;;;;;;2.72;2.53;;;;;;;;;;5051040;28;20052;-63
2023/11/03 08:25:13;;;;;;;2.00;1.90;;;;;;;;;;5049757;28;20049;-62
2023/11/03 08:27:43;;;;;;;2.38;2.17;;;;;;;;;;5051324;28;20444;-63
2023/11/03 08:30:12;;;;;;;2.10;2.00;;;;;;;;;;5045037;28;20056;-64
2023/11/03 08:32:41;;;;;;;3.97;2.20;;;;;;;;;;5049646;28;20052;-69
2023/11/03 08:35:11;;;;;;;3.25;1.88;;;;;;;;;;5049308;28;20047;-63
2023/11/03 08:37:41;;;;;;;2.20;2.05;;;;;;;;;;5051971;28;20764;-61
2023/11/03 08:40:10;;;;;;;1.98;1.88;;;;;;;;;;5049452;28;20518;-61
2023/11/03 08:42:38;;;;;;;2.30;2.10;;;;;;;;;;5051353;28;20045;-62
2023/11/03 08:45:09;;;;;;;2.70;2.03;;;;;;;;;;5051055;28;20475;-63
2023/11/03 08:47:41;;;;;;;1.73;1.63;;;;;;;;;;5049263;28;20470;-63
2023/11/03 08:50:10;;;;;;;2.03;1.92;;;;;;;;;;5049122;28;20140;-63
2023/11/03 08:52:40;;;;;;;4.97;2.47;;;;;;;;;;5051929;28;20045;-62
2023/11/03 08:55:10;;;;;;;1.90;1.63;;;;;;;;;;5043540;28;20057;-64
2023/11/03 08:57:39;;;;;;;2.47;1.92;;;;;;;;;;5048434;28;20132;-67
2023/11/03 09:00:11;;;;;;;2.10;1.92;;;;;;;;;;5048538;28;20045;-61
2023/11/03 09:02:41;;;;;;;2.90;1.80;;;;;;;;;;5051171;28;20053;-61
2023/11/03 09:05:11;;;;;;;2.08;1.85;;;;;;;;;;5047372;28;20040;-61
2023/11/03 09:07:39;;;;;;;3.17;1.95;;;;;;;;;;5045931;28;20041;-61
2023/11/03 09:10:10;;;;;;;1.92;1.80;;;;;;;;;;5039104;28;20461;-61
2023/11/03 09:12:40;;;;;;;4.18;2.20;;;;;;;;;;5048803;28;20383;-68
2023/11/03 09:15:10;;;;;;;2.35;2.22;;;;;;;;;;5044377;28;20049;-66
2023/11/03 09:17:45;;;;;;;2.22;2.03;;;;;;;;;;5049666;28;20041;-60
2023/11/03 09:20:17;;;;;;;2.50;1.95;;;;;;;;;;5038604;28;20055;-60
2023/11/03 09:22:48;;;;;;;3.75;2.30;;;;;;;;;;5046257;28;20041;-66
2023/11/03 09:25:17;;;;;;;2.05;1.85;;;;;;;;;;5045189;28;20474;-68
2023/11/03 09:27:46;;;;;;;2.03;1.90;;;;;;;;;;5048028;28;20067;-60
2023/11/03 09:30:16;;;;;;;1.90;1.80;;;;;;;;;;5048363;28;20041;-62
2023/11/03 09:32:47;;;;;;;1.90;1.80;;;;;;;;;;5045353;28;20060;-60
2023/11/03 09:35:16;;;;;;;2.20;2.05;;;;;;;;;;5042521;28;20528;-61
2023/11/03 09:37:45;;;;;;;2.20;2.00;;;;;;;;;;5042530;28;20049;-60
2023/11/03 09:40:17;;;;;;;1.95;1.85;;;;;;;;;;5042743;28;20521;-60
2023/11/03 09:42:47;;;;;;;1.77;1.67;;;;;;;;;;5040706;28;20438;-62
2023/11/03 09:45:23;;;;;;;2.35;1.80;;;;;;;;;;5038383;28;20088;-62
2023/11/03 09:47:53;;;;;;;1.80;1.70;;;;;;;;;;5042796;28;20087;-66
2023/11/03 09:50:21;;;;;;;1.80;1.70;;;;;;;;;;5047762;28;20051;-61
2023/11/03 09:52:51;;;;;;;2.03;1.83;;;;;;;;;;5045810;28;20052;-61
2023/11/03 09:55:21;;;;;;;1.90;1.80;;;;;;;;;;5044439;28;20427;-61
2023/11/03 09:57:50;;;;;;;3.10;2.00;;;;;;;;;;5043645;28;20041;-62
2023/11/03 10:00:22;;;;;;;1.92;1.67;;;;;;;;;;5044625;28;20048;-60
2023/11/03 10:02:51;;;;;;;2.13;2.03;;;;;;;;;;5044841;28;20579;-61
2023/11/03 10:05:21;;;;;;;2.00;1.90;;;;;;;;;;5046271;28;20452;-62
2023/11/03 10:07:55;;;;;;;2.78;2.10;;;;;;;;;;5047090;28;20045;-62
2023/11/03 10:10:24;;;;;;;1.90;1.80;;;;;;;;;;5044705;28;20053;-65
2023/11/03 10:12:52;;;;;;;2.33;2.10;;;;;;;;;;5047368;28;20075;-61
2023/11/03 10:15:23;;;;;;;2.45;1.90;;;;;;;;;;5046052;28;20079;-67
2023/11/03 10:17:53;;;;;;;3.05;2.10;;;;;;;;;;5047369;28;20052;-63
2023/11/03 10:20:22;;;;;;;2.13;2.03;;;;;;;;;;5042723;28;20053;-63
2023/11/03 10:22:50;;;;;;;1.90;1.80;;;;;;;;;;5043139;28;20099;-62
2023/11/03 10:25:19;;;;;;;2.05;1.95;;;;;;;;;;5038349;28;20191;-63
2023/11/03 10:27:49;;;;;;;2.13;1.92;;;;;;;;;;5046793;28;20044;-60
2023/11/03 10:30:21;;;;;;;2.00;1.90;;;;;;;;;;5043677;28;20448;-62
2023/11/03 10:32:50;;;;;;;2.00;1.90;;;;;;;;;;5040332;28;20568;-63
2023/11/03 10:35:19;;;;;;;2.38;2.22;;;;;;;;;;5046804;28;20506;-64
2023/11/03 10:37:47;;;;;;;2.58;2.22;;;;;;;;;;5037638;28;20053;-62
2023/11/03 10:40:16;;;;;;;1.92;1.83;;;;;;;;;;5044796;28;20045;-60
2023/11/03 10:42:48;;;;;;;6.93;2.42;;;;;;;;;;5044417;28;20049;-62
2023/11/03 10:45:18;;;;;;;2.28;2.08;;;;;;;;;;5046353;28;20233;-61
2023/11/03 10:47:58;;;;;;;1.92;1.83;;;;;;;;;;5041523;28;20071;-60
2023/11/03 10:50:31;;;;;;;2.70;2.55;;;;;;;;;;5040522;28;20045;-61
2023/11/03 10:53:04;;;;;;;2.55;2.38;;;;;;;;;;5046846;28;20111;-62
2023/11/03 10:55:38;;;;;;;2.10;2.00;;;;;;;;;;5043719;28;20076;-63
2023/11/03 10:58:07;;;;;;;2.27;2.10;;;;;;;;;;5043471;28;20045;-62
2023/11/03 11:00:42;;;;;;;2.30;2.10;;;;;;;;;;5044926;28;20335;-65
2023/11/03 11:03:15;;;;;;;2.60;2.40;;;;;;;;;;5042439;28;20084;-61
2023/11/03 11:05:47;;;;;;;1.75;1.67;;;;;;;;;;5034888;28;20049;-61
2023/11/03 11:08:17;;;;;;;2.40;2.20;;;;;;;;;;5045647;28;20053;-61
2023/11/03 11:10:46;;;;;;;2.40;2.30;;;;;;;;;;5034486;28;20049;-61
2023/11/03 11:13:18;;;;;;;1.92;1.83;;;;;;;;;;5044490;28;20519;-65
2023/11/03 11:16:05;;;;;;;2.15;2.05;;;;;;;;;;5042072;28;20591;-61
2023/11/03 11:18:42;;;;;;;5.30;2.13;;;;;;;;;;5041835;28;20123;-63
2023/11/03 11:21:14;;;;;;;2.03;1.92;;;;;;;;;;5041618;28;20053;-69
2023/11/03 11:23:47;;;;;;;2.10;2.00;;;;;;;;;;5046138;28;20041;-63
2023/11/03 11:26:16;;;;;;;2.15;2.00;;;;;;;;;;5044156;28;20045;-67
2023/11/03 11:29:02;;;;;;;2.03;1.92;;;;;;;;;;5041095;28;20056;-62
2023/11/03 11:31:38;;;;;;;2.10;2.00;;;;;;;;;;5043545;28;20071;-69
2023/11/03 11:34:10;;;;;;;1.98;1.88;;;;;;;;;;5039646;28;20048;-61
2023/11/03 11:36:40;;;;;;;2.42;1.92;;;;;;;;;;5042459;28;20088;-66
2023/11/03 11:39:13;;;;;;;2.72;1.63;;;;;;;;;;5044998;28;20061;-63
2023/11/03 11:41:50;;;;;;;2.20;2.00;;;;;;;;;;5039719;28;20049;-64
2023/11/03 11:44:21;;;;;;;1.75;1.65;;;;;;;;;;5046350;28;20048;-61
2023/11/03 11:46:53;;;;;;;5.53;2.13;;;;;;;;;;5045765;28;20103;-63
2023/11/03 11:49:24;;;;;;;2.00;1.90;;;;;;;;;;5038144;28;20408;-68
2023/11/03 11:51:53;;;;;;;3.17;2.20;;;;;;;;;;5043062;28;20045;-63
2023/11/03 11:54:22;;;;;;;2.85;2.00;;;;;;;;;;5046216;28;20076;-68
2023/11/03 11:56:51;;;;;;;1.90;1.80;;;;;;;;;;5043294;28;20049;-66
2023/11/03 11:59:20;;;;;;;2.20;2.00;;;;;;;;;;5040004;28;20049;-62
2023/11/03 12:01:49;;;;;;;2.72;1.90;;;;;;;;;;5045652;28;20472;-64
2023/11/03 12:04:18;;;;;;;1.63;1.60;;;;;;;;;;5047219;28;20044;-64
2023/11/03 12:06:48;;;;;;;1.80;1.65;;;;;;;;;;5046558;28;20051;-61
2023/11/03 12:09:17;;;;;;;2.35;1.90;;;;;;;;;;5049314;28;20053;-62
2023/11/03 12:11:45;;;;;;;1.77;1.67;;;;;;;;;;5047015;28;20481;-64
2023/11/03 12:14:15;;;;;;;2.50;1.88;;;;;;;;;;5045372;28;20476;-64
2023/11/03 12:16:43;;;;;;;2.00;1.90;;;;;;;;;;5049152;28;20049;-67
2023/11/03 12:19:15;;;;;;;1.65;1.60;;;;;;;;;;5042682;28;20064;-61
2023/11/03 12:21:44;;;;;;;2.38;2.28;;;;;;;;;;5047773;28;20056;-62
2023/11/03 12:24:14;;;;;;;2.03;1.90;;;;;;;;;;5039776;28;20057;-64
2023/11/03 12:26:43;;;;;;;2.00;1.90;;;;;;;;;;5047250;28;20052;-63
2023/11/03 12:29:30;;;;;;;2.92;2.15;;;;;;;;;;5049482;28;20579;-63
2023/11/03 12:32:00;;;;;;;2.33;2.13;;;;;;;;;;5045822;28;20045;-63
2023/11/03 12:34:29;;;;;;;2.30;2.15;;;;;;;;;;5048196;28;20052;-67
2023/11/03 12:36:58;;;;;;;2.15;1.90;;;;;;;;;;5047842;28;20108;-64
2023/11/03 12:39:28;;;;;;;1.95;1.85;;;;;;;;;;5040046;28;20395;-67
2023/11/03 12:42:03;;;;;;;1.98;1.88;;;;;;;;;;5050538;28;20041;-64
2023/11/03 12:44:32;;;;;;;;;;;;;;;;;;5046874;28;20044;-61
2023/11/03 12:47:01;;;;;;;2.63;2.33;;;;;;;;;;5046408;28;20252;-62
2023/11/03 12:49:31;;;;;;;2.30;2.20;;;;;;;;;;5045263;28;20468;-65
2023/11/03 12:51:59;;;;;;;1.90;1.80;;;;;;;;;;5045554;28;20055;-64
2023/11/03 12:54:30;;;;;;;1.90;1.80;;;;;;;;;;5044547;28;20045;-64
2023/11/03 12:56:59;;;;;;;3.17;1.90;;;;;;;;;;5046429;28;20061;-61
2023/11/03 12:59:27;;;;;;;2.88;2.10;;;;;;;;;;5042126;28;20483;-64
2023/11/03 13:01:56;;;;;;;2.25;2.15;;;;;;;;;;5042537;28;20048;-62
2023/11/03 13:04:24;;;;;;;1.95;1.85;;;;;;;;;;5047527;28;20422;-65
2023/11/03 13:06:57;;;;;;;1.92;1.83;;;;;;;;;;5041541;28;20051;-62
2023/11/03 13:09:26;;;;;;;2.30;2.00;;;;;;;;;;5047417;28;20557;-65
2023/11/03 13:11:56;;;;;;;3.53;1.73;;;;;;;;;;5047492;28;20052;-69
2023/11/03 13:14:25;;;;;;;2.35;1.85;;;;;;;;;;5047984;28;20052;-69
2023/11/03 13:16:54;;;;;;;2.42;2.22;;;;;;;;;;5048471;28;20513;-68
2023/11/03 13:19:23;;;;;;;2.47;2.20;;;;;;;;;;5040115;28;20045;-66
2023/11/03 13:21:51;;;;;;;1.90;1.80;;;;;;;;;;5044219;28;20053;-65
2023/11/03 13:24:20;;;;;;;2.20;2.00;;;;;;;;;;5048646;28;20102;-68
2023/11/03 13:26:48;;;;;;;1.75;1.67;;;;;;;;;;5044409;28;20068;-65
2023/11/03 13:29:18;;;;;;;2.40;1.80;;;;;;;;;;5039326;28;20103;-69
2023/11/03 13:31:48;;;;;;;2.17;2.00;;;;;;;;;;5048407;28;20052;-65
2023/11/03 13:34:16;;;;;;;1.92;1.83;;;;;;;;;;5045570;28;20493;-69
2023/11/03 13:36:45;;;;;;;1.98;1.80;;;;;;;;;;5041921;28;20080;-66
2023/11/03 13:39:14;;;;;;;2.28;2.08;;;;;;;;;;5043591;28;20073;-66
2023/11/03 13:41:45;;;;;;;2.08;1.90;;;;;;;;;;5048177;28;20126;-62
2023/11/03 13:44:13;;;;;;;2.15;2.05;;;;;;;;;;5051446;28;20049;-64
2023/11/03 13:46:43;;;;;;;2.58;2.15;;;;;;;;;;5039233;28;20087;-65
2023/11/03 13:49:11;;;;;;;1.90;1.80;;;;;;;;;;5043134;28;20083;-65
2023/11/03 13:51:55;;;;;;;2.28;2.13;;;;;;;;;;5050113;28;20041;-73
2023/11/03 13:54:24;;;;;;;2.00;1.90;;;;;;;;;;5043227;28;20051;-73
2023/11/03 13:56:52;;;;;;;2.42;2.33;;;;;;;;;;5042534;28;20045;-76
2023/11/03 13:59:22;;;;;;;2.47;2.38;;;;;;;;;;5044281;28;20045;-77
2023/11/03 14:01:52;;;;;;;2.17;2.08;;;;;;;;;;5047408;28;20045;-74
2023/11/03 14:04:21;;;;;;;2.00;1.90;;;;;;;;;;5045045;28;20061;-78
2023/11/03 14:06:50;;;;;;;2.20;2.10;;;;;;;;;;5045769;28;20056;-72
2023/11/03 14:09:24;;;;;;;2.00;1.90;;;;;;;;;;5043392;28;20052;-73
2023/11/03 14:11:53;;;;;;;2.08;1.98;;;;;;;;;;5047961;28;20045;-77
2023/11/03 14:14:22;;;;;;;1.83;1.70;;;;;;;;;;5047295;28;20045;-77
2023/11/03 14:16:52;;;;;;;2.15;2.05;;;;;;;;;;5045792;28;20544;-72
2023/11/03 14:19:21;;;;;;;1.70;1.70;;;;;;;;;;5046519;28;20057;-75
2023/11/03 14:21:49;;;;;;;2.10;2.00;;;;;;;;;;5044734;28;20132;-78
2023/11/03 14:24:18;;;;;;;2.33;2.13;;;;;;;;;;5044164;28;20509;-74
2023/11/03 14:26:47;;;;;;;1.83;1.73;;;;;;;;;;5043016;28;20556;-77
2023/11/03 14:29:17;;;;;;;1.80;1.70;;;;;;;;;;5048120;28;20045;-79
2023/11/03 14:31:46;;;;;;;2.72;1.90;;;;;;;;;;5041426;28;20056;-77
2023/11/03 14:34:16;;;;;;;1.85;1.75;;;;;;;;;;5040355;28;20045;-77
2023/11/03 14:36:45;;;;;;;1.90;1.80;;;;;;;;;;5047291;28;20049;-79
2023/11/03 14:39:15;;;;;;;2.45;1.80;;;;;;;;;;5047718;28;20071;-81
2023/11/03 14:41:44;;;;;;;2.53;2.33;;;;;;;;;;5045649;28;20287;-80
2023/11/03 14:44:14;;;;;;;2.70;2.03;;;;;;;;;;5047173;28;20136;-77
2023/11/03 14:46:43;;;;;;;1.90;1.80;;;;;;;;;;5042318;28;20065;-77
2023/11/03 14:49:12;;;;;;;2.20;2.00;;;;;;;;;;5041003;28;20103;-77
2023/11/03 14:51:43;;;;;;;2.33;2.13;;;;;;;;;;5044121;28;20047;-79
2023/11/03 14:54:14;;;;;;;2.10;1.85;;;;;;;;;;5044840;28;20053;-76
2023/11/03 14:56:43;;;;;;;1.90;1.80;;;;;;;;;;5043579;28;20548;-77